Time;durP1;ratioP1;P1;durP2;ratioP2;P2;SDS_P1;SDS_P2;PMS_P1;PMS_P2;Temp;Humidity;BMP_temperature;BMP_pressure;BME280_temperature;BME280_humidity;BME280_pressure;Samples;Min_cycle;Max_cycle;Signal;HPM_P1;HPM_P2
2021/12/05 00:21:09;;;;;;;2.87;1.50;;;5.80;93.90;;;;;;5106795;28;20510;-43
2021/12/05 00:23:46;;;;;;;2.93;1.30;;;5.80;93.90;;;;;;5107425;28;20759;-43
2021/12/05 00:26:16;;;;;;;5.10;2.43;;;5.80;93.90;;;;;;5106790;28;20880;-40
2021/12/05 00:40:21;;;;;;;3.60;1.93;;;5.90;93.90;;;;;;5107557;28;20914;-44
2021/12/05 00:53:28;;;;;;;4.60;1.63;;;5.80;93.80;;;;;;5107333;28;20463;-44
2021/12/05 00:56:04;;;;;;;3.87;1.40;;;5.80;93.60;;;;;;5107071;28;20414;-44
2021/12/05 01:09:33;;;;;;;3.83;1.20;;;5.80;93.30;;;;;;5105898;28;20903;-42
2021/12/05 01:14:49;;;;;;;3.00;1.00;;;5.80;93.30;;;;;;5118327;28;20776;-43
2021/12/05 01:17:18;;;;;;;1.63;1.10;;;5.80;93.30;;;;;;5114044;28;20172;-43
2021/12/05 01:19:44;;;;;;;2.20;1.17;;;5.80;93.30;;;;;;5120864;28;20780;-43
2021/12/05 01:22:12;;;;;;;4.23;1.60;;;5.80;93.30;;;;;;5120991;28;20429;-43
2021/12/05 01:24:54;;;;;;;3.73;1.53;;;5.80;93.30;;;;;;5121229;28;20426;-43
2021/12/05 01:30:10;;;;;;;2.63;1.27;;;5.70;93.30;;;;;;5120705;28;20418;-44
2021/12/05 01:35:24;;;;;;;3.73;1.40;;;5.70;93.40;;;;;;5120403;28;20501;-43
2021/12/05 01:41:09;;;;;;;2.97;1.20;;;5.70;93.40;;;;;;5120331;28;20873;-44
2021/12/05 01:43:53;;;;;;;2.03;1.27;;;5.70;93.40;;;;;;5118007;28;20691;-43
2021/12/05 01:47:25;;;;;;;3.73;1.47;;;5.70;93.40;;;;;;5117066;28;20481;-44
2021/12/05 01:50:00;;;;;;;4.40;1.53;;;5.70;93.40;;;;;;5095176;28;20525;-44
2021/12/05 02:00:13;;;;;;;3.13;1.13;;;5.70;93.40;;;;;;5100337;28;20431;-44
2021/12/05 02:08:17;;;;;;;3.37;1.40;;;5.70;93.40;;;;;;5099824;28;20469;-44
2021/12/05 02:16:28;;;;;;;2.40;1.23;;;5.60;93.40;;;;;;5096209;28;20418;-44
2021/12/05 02:29:35;;;;;;;4.10;1.43;;;5.60;93.40;;;;;;5097526;28;20441;-44
2021/12/05 02:37:37;;;;;;;4.33;1.57;;;5.60;93.50;;;;;;5097437;28;20433;-44
2021/12/05 02:43:06;;;;;;;3.20;1.60;;;5.50;93.60;;;;;;5116890;28;20428;-44
2021/12/05 02:45:26;;;;;;;3.17;1.80;;;5.50;93.60;;;;;;5117820;28;20467;-44
2021/12/05 02:47:53;;;;;;;4.07;1.50;;;5.50;93.60;;;;;;5118031;28;20452;-44
2021/12/05 02:50:23;;;;;;;5.33;1.30;;;5.50;93.70;;;;;;5118056;28;20425;-44
2021/12/05 02:52:50;;;;;;;3.77;1.57;;;5.50;93.80;;;;;;5118204;28;20430;-44
2021/12/05 02:55:37;;;;;;;3.40;1.40;;;5.50;93.80;;;;;;5117729;28;20433;-44
2021/12/05 02:58:16;;;;;;;2.97;1.23;;;5.50;93.80;;;;;;5097048;28;20430;-43
2021/12/05 03:01:31;;;;;;;3.70;1.57;;;5.50;93.80;;;;;;5114225;28;20484;-44
2021/12/05 03:03:33;;;;;;;2.20;1.30;;;5.50;93.80;;;;;;5112502;28;20780;-44
2021/12/05 03:06:16;;;;;;;2.50;1.10;;;5.40;93.80;;;;;;5116791;28;20461;-44
2021/12/05 03:08:43;;;;;;;2.20;1.40;;;5.50;93.90;;;;;;5117981;28;20492;-44
2021/12/05 03:11:09;;;;;;;3.20;1.50;;;5.40;93.90;;;;;;5117762;28;20461;-44
2021/12/05 03:13:37;;;;;;;5.93;2.43;;;5.40;93.90;;;;;;5118582;28;20410;-44
2021/12/05 03:16:04;;;;;;;3.77;1.73;;;5.40;93.90;;;;;;5119223;28;20858;-44
2021/12/05 03:18:29;;;;;;;2.70;1.70;;;5.40;93.90;;;;;;5118947;27;20502;-44
2021/12/05 03:20:58;;;;;;;2.33;1.23;;;5.40;94.00;;;;;;5118826;28;20842;-42
2021/12/05 03:23:25;;;;;;;2.63;1.67;;;5.40;94.00;;;;;;5118499;28;20195;-44
2021/12/05 03:25:51;;;;;;;3.07;1.20;;;5.40;94.00;;;;;;5118940;28;20480;-44
2021/12/05 03:28:16;;;;;;;2.20;1.47;;;5.40;94.00;;;;;;5118610;28;20422;-43
2021/12/05 03:30:42;;;;;;;2.67;1.50;;;5.40;94.00;;;;;;5118640;28;20487;-45
2021/12/05 03:33:08;;;;;;;3.00;1.50;;;5.40;94.00;;;;;;5118290;28;20207;-44
2021/12/05 03:35:33;;;;;;;2.30;1.40;;;5.40;94.00;;;;;;5118449;28;20184;-44
2021/12/05 03:37:59;;;;;;;5.30;1.00;;;5.40;93.90;;;;;;5118184;28;20180;-44
2021/12/05 03:40:27;;;;;;;2.17;1.30;;;5.40;93.90;;;;;;5118376;28;20207;-44
2021/12/05 03:42:54;;;;;;;3.03;1.37;;;5.40;93.80;;;;;;5118627;28;20430;-44
2021/12/05 03:45:25;;;;;;;2.33;1.20;;;5.40;93.90;;;;;;5117488;28;20436;-44
2021/12/05 03:47:51;;;;;;;4.93;1.40;;;5.40;93.90;;;;;;5117277;28;20426;-44
2021/12/05 03:50:17;;;;;;;6.30;1.73;;;5.40;93.90;;;;;;5116632;28;20446;-44
2021/12/05 03:52:42;;;;;;;3.20;1.30;;;5.30;93.80;;;;;;5117250;28;20753;-48
2021/12/05 03:55:10;;;;;;;2.10;1.13;;;5.40;93.90;;;;;;5117926;28;20183;-43
2021/12/05 03:57:36;;;;;;;3.07;1.43;;;5.40;93.90;;;;;;5117477;28;20175;-44
2021/12/05 04:00:10;;;;;;;1.87;1.30;;;5.40;93.90;;;;;;5116685;28;20499;-43
2021/12/05 04:02:35;;;;;;;2.70;1.53;;;5.40;93.80;;;;;;5117818;28;20194;-44
2021/12/05 04:05:01;;;;;;;4.60;1.77;;;5.40;93.80;;;;;;5117647;28;20700;-44
2021/12/05 04:07:27;;;;;;;3.90;1.27;;;5.40;93.80;;;;;;5118257;28;20353;-44
2021/12/05 04:09:52;;;;;;;2.50;1.40;;;5.40;93.80;;;;;;5116535;28;20191;-44
2021/12/05 04:12:18;;;;;;;4.50;1.30;;;5.40;93.80;;;;;;5118098;28;20520;-44
2021/12/05 04:14:46;;;;;;;4.43;1.80;;;5.40;93.70;;;;;;5118309;28;20190;-44
2021/12/05 04:17:14;;;;;;;5.50;1.47;;;5.40;93.70;;;;;;5118222;28;20172;-44
2021/12/05 04:19:40;;;;;;;5.10;1.50;;;5.40;93.60;;;;;;5118224;28;20421;-44
2021/12/05 04:22:07;;;;;;;2.70;1.10;;;5.30;93.50;;;;;;5118281;28;20490;-44
2021/12/05 04:24:34;;;;;;;2.77;1.00;;;5.30;93.60;;;;;;5118177;28;20408;-43
2021/12/05 04:27:00;;;;;;;2.00;1.10;;;5.40;93.60;;;;;;5117552;28;20474;-44
2021/12/05 04:29:26;;;;;;;2.87;1.30;;;5.30;93.50;;;;;;5116911;28;20438;-44
2021/12/05 04:31:52;;;;;;;3.43;1.10;;;5.30;93.50;;;;;;5116069;28;20839;-44
2021/12/05 04:34:18;;;;;;;2.63;1.10;;;5.30;93.50;;;;;;5117893;28;20417;-44
2021/12/05 04:36:44;;;;;;;1.70;0.87;;;5.30;93.50;;;;;;5117568;28;20440;-45
2021/12/05 04:39:12;;;;;;;3.47;1.33;;;5.30;93.80;;;;;;5117204;28;20434;-44
2021/12/05 04:41:42;;;;;;;2.20;1.20;;;5.30;93.40;;;;;;5117476;28;20440;-44
2021/12/05 04:44:08;;;;;;;4.33;1.50;;;5.30;93.40;;;;;;5117434;28;20445;-44
2021/12/05 04:46:35;;;;;;;2.97;1.30;;;5.30;93.50;;;;;;5116843;28;20744;-44
2021/12/05 04:49:01;;;;;;;4.43;1.70;;;5.30;93.60;;;;;;5116235;28;20413;-44
2021/12/05 04:51:32;;;;;;;4.80;1.83;;;5.30;93.60;;;;;;5119772;28;20420;-43
2021/12/05 04:53:58;;;;;;;4.27;2.00;;;5.30;93.60;;;;;;5121067;28;20518;-44
2021/12/05 04:56:25;;;;;;;2.87;1.67;;;5.30;93.70;;;;;;5121417;28;20433;-44
2021/12/05 04:58:52;;;;;;;5.73;2.30;;;5.30;93.70;;;;;;5120712;28;20482;-42
2021/12/05 05:01:18;;;;;;;4.90;2.60;;;5.30;93.70;;;;;;5121019;28;20418;-43
2021/12/05 05:03:44;;;;;;;2.83;2.00;;;5.30;93.80;;;;;;5120988;28;20435;-46
2021/12/05 05:06:15;;;;;;;4.10;2.20;;;5.30;93.80;;;;;;5121547;27;20456;-46
2021/12/05 05:08:48;;;;;;;4.43;1.87;;;5.30;93.90;;;;;;5120596;28;20755;-46
2021/12/05 05:11:16;;;;;;;3.93;1.90;;;5.40;93.90;;;;;;5121828;28;20470;-46
2021/12/05 05:13:43;;;;;;;3.33;1.70;;;5.40;93.90;;;;;;5121633;28;20435;-46
2021/12/05 05:16:10;;;;;;;5.23;1.47;;;5.40;93.80;;;;;;5121024;28;20671;-46
2021/12/05 05:18:54;;;;;;;3.23;1.77;;;5.40;93.70;;;;;;5121463;28;20519;-46
2021/12/05 05:21:46;;;;;;;3.50;1.30;;;5.40;93.60;;;;;;5121720;27;20508;-46
2021/12/05 05:46:01;;;;;;;2.67;1.17;;;8.40;99.20;;;;;;5120622;28;20552;-46
2021/12/05 05:48:49;;;;;;;2.47;1.23;;;8.00;97.10;;;;;;5120471;28;20416;-46
2021/12/05 05:51:15;;;;;;;5.20;1.43;;;7.60;95.70;;;;;;5121032;28;20490;-46
2021/12/05 05:53:41;;;;;;;2.20;1.27;;;7.10;94.70;;;;;;5120662;28;20469;-46
2021/12/05 05:56:15;;;;;;;2.47;1.00;;;6.80;94.20;;;;;;5119303;28;20478;-46
2021/12/05 05:58:47;;;;;;;1.50;1.20;;;6.50;93.60;;;;;;5120110;27;20420;-46
2021/12/05 06:01:21;;;;;;;2.33;0.90;;;6.20;93.40;;;;;;5118493;28;20422;-46
2021/12/05 06:03:48;;;;;;;1.63;1.10;;;6.00;93.40;;;;;;5119507;28;20508;-46
2021/12/05 06:06:15;;;;;;;3.40;1.20;;;5.80;93.50;;;;;;5118466;28;20491;-46
2021/12/05 06:08:41;;;;;;;1.53;1.00;;;5.70;93.70;;;;;;5119155;28;20412;-46
2021/12/05 06:11:10;;;;;;;2.53;1.10;;;5.60;93.80;;;;;;5119648;28;20433;-46
2021/12/05 06:13:37;;;;;;;3.67;1.40;;;5.50;93.80;;;;;;5120000;28;20413;-46
2021/12/05 06:16:04;;;;;;;3.50;1.33;;;5.40;93.80;;;;;;5120194;28;20501;-46
2021/12/05 06:18:30;;;;;;;2.60;1.20;;;5.30;93.70;;;;;;5119877;28;20531;-46
2021/12/05 06:20:56;;;;;;;5.03;1.53;;;5.20;93.70;;;;;;5120128;28;20500;-46
2021/12/05 06:23:22;;;;;;;2.57;1.30;;;5.20;93.80;;;;;;5120223;28;20195;-46
2021/12/05 06:25:50;;;;;;;1.40;0.90;;;5.10;93.80;;;;;;5120309;28;20522;-46
2021/12/05 06:28:18;;;;;;;2.50;1.23;;;5.00;93.80;;;;;;5119665;28;20747;-46
2021/12/05 06:47:30;;;;;;;2.40;0.97;;;4.80;94.10;;;;;;5098992;28;20469;-46
2021/12/05 06:49:57;;;;;;;3.73;1.30;;;4.80;94.20;;;;;;5098933;28;20508;-46
2021/12/05 06:52:23;;;;;;;3.70;1.40;;;4.70;94.20;;;;;;5099368;28;20418;-46
2021/12/05 06:54:50;;;;;;;2.10;1.40;;;4.80;94.30;;;;;;5098745;28;20467;-46
2021/12/05 06:57:17;;;;;;;2.07;1.27;;;4.70;94.30;;;;;;5098324;28;20426;-46
2021/12/05 06:59:45;;;;;;;3.13;1.60;;;4.70;94.30;;;;;;5098007;28;20411;-46
2021/12/05 07:02:12;;;;;;;2.60;1.13;;;4.70;94.30;;;;;;5115689;28;20430;-46
2021/12/05 07:07:22;;;;;;;5.40;1.70;;;4.70;94.50;;;;;;5118432;28;20475;-46
2021/12/05 07:09:49;;;;;;;3.83;1.67;;;4.70;94.50;;;;;;5119144;28;20893;-46
2021/12/05 07:15:16;;;;;;;5.00;1.47;;;4.70;94.60;;;;;;5091324;28;20420;-46
2021/12/05 07:23:17;;;;;;;3.10;1.40;;;4.70;94.40;;;;;;5097816;28;20448;-46
2021/12/05 07:26:04;;;;;;;4.00;1.20;;;4.70;94.50;;;;;;5097603;28;20494;-46
2021/12/05 07:42:19;;;;;;;3.07;1.23;;;4.80;94.30;;;;;;5102153;28;20422;-45
2021/12/05 07:44:45;;;;;;;3.00;1.23;;;4.80;94.10;;;;;;5116805;28;20433;-46
2021/12/05 07:47:13;;;;;;;2.03;1.33;;;4.80;94.00;;;;;;5099604;28;20517;-46
2021/12/05 07:49:39;;;;;;;4.00;1.17;;;4.80;93.90;;;;;;5114745;28;20430;-46
2021/12/05 07:52:06;;;;;;;3.80;1.10;;;4.90;94.00;;;;;;5116200;28;20429;-46
2021/12/05 07:54:41;;;;;;;1.70;1.40;;;5.00;94.00;;;;;;5116901;28;20871;-47
2021/12/05 07:59:58;;;;;;;3.20;1.50;;;5.40;93.80;;;;;;5118137;28;20453;-47
2021/12/05 08:16:16;;;;;;;2.10;1.27;;;6.80;92.20;;;;;;5100150;28;20527;-46
2021/12/05 08:18:42;;;;;;;4.03;1.60;;;7.20;91.70;;;;;;5096508;28;20411;-46
2021/12/05 08:21:08;;;;;;;3.17;1.30;;;7.70;91.40;;;;;;5095190;28;20425;-45
2021/12/05 08:23:34;;;;;;;2.80;1.30;;;8.10;91.00;;;;;;5095489;28;20519;-45
2021/12/05 08:26:10;;;;;;;3.37;1.53;;;8.30;90.40;;;;;;5100389;28;20503;-47
2021/12/05 08:31:36;;;;;;;2.87;1.27;;;8.30;88.40;;;;;;5101291;28;20432;-46
2021/12/05 08:34:32;;;;;;;3.63;1.47;;;8.30;88.10;;;;;;5099293;28;20741;-47
2021/12/05 08:45:06;;;;;;;3.93;2.80;;;8.10;87.60;;;;;;5099824;28;20474;-46
2021/12/05 09:28:08;;;;;;;2.20;1.30;;;14.50;67.70;;;;;;5100142;28;20456;-48
2021/12/05 09:30:50;;;;;;;7.60;1.50;;;14.70;66.60;;;;;;5098760;28;20410;-47
2021/12/05 10:06:43;;;;;;;2.37;1.10;;;15.40;55.90;;;;;;5117336;28;20432;-48
2021/12/05 10:14:34;;;;;;;3.23;1.20;;;14.90;56.50;;;;;;5080833;28;20439;-47
2021/12/05 10:34:25;;;;;;;3.47;1.30;;;21.40;48.10;;;;;;5119040;28;20422;-48
2021/12/05 10:37:11;;;;;;;1.30;0.93;;;22.20;46.20;;;;;;5118052;28;20479;-48
2021/12/05 10:39:37;;;;;;;2.03;1.00;;;23.00;45.00;;;;;;5118381;28;20447;-48
2021/12/05 10:45:23;;;;;;;1.70;0.90;;;23.20;42.30;;;;;;5110489;28;20437;-48
2021/12/05 10:47:51;;;;;;;2.27;1.00;;;22.70;41.00;;;;;;5118087;28;20573;-47
2021/12/05 10:50:42;;;;;;;1.63;0.80;;;21.90;40.40;;;;;;5118041;28;20414;-48
2021/12/05 10:53:26;;;;;;;1.87;1.00;;;21.10;40.80;;;;;;5099929;28;20662;-48
2021/12/05 10:56:10;;;;;;;1.60;0.80;;;20.20;41.30;;;;;;5117423;28;20434;-47
2021/12/05 10:58:45;;;;;;;1.40;0.87;;;19.40;41.20;;;;;;5100106;28;20851;-41
2021/12/05 11:01:19;;;;;;;2.10;1.07;;;18.70;42.10;;;;;;5117716;28;20501;-41
2021/12/05 11:03:47;;;;;;;1.83;1.07;;;18.20;42.20;;;;;;5118488;28;20433;-40
2021/12/05 11:06:31;;;;;;;1.80;1.00;;;17.80;42.80;;;;;;5118583;28;20469;-41
2021/12/05 11:09:18;;;;;;;2.10;1.50;;;17.60;43.60;;;;;;5117613;28;20474;-41
2021/12/05 11:11:47;;;;;;;2.43;1.00;;;17.60;44.00;;;;;;5116615;28;20694;-42
2021/12/05 11:14:20;;;;;;;1.93;1.10;;;17.70;44.00;;;;;;5116992;28;20448;-40
2021/12/05 11:16:55;;;;;;;2.43;1.17;;;17.60;44.00;;;;;;5118426;28;20483;-40
2021/12/05 11:19:31;;;;;;;3.30;1.10;;;17.30;43.70;;;;;;5117102;28;20985;-40
2021/12/05 11:22:10;;;;;;;4.67;0.80;;;17.30;43.90;;;;;;5116103;28;20508;-42
2021/12/05 11:24:44;;;;;;;2.30;0.80;;;17.60;58.90;;;;;;5116248;28;20508;-44
2021/12/05 11:27:37;;;;;;;3.50;1.17;;;18.00;63.40;;;;;;5118077;28;20735;-42
2021/12/05 11:30:44;;;;;;;3.90;1.07;;;18.30;60.90;;;;;;5100017;28;20524;-43
2021/12/05 11:33:19;;;;;;;2.97;1.00;;;18.50;59.50;;;;;;5035974;28;20448;-45
2021/12/05 11:35:49;;;;;;;1.80;1.00;;;18.70;57.90;;;;;;5105006;28;20456;-45
2021/12/05 11:38:24;;;;;;;1.20;0.70;;;18.70;58.00;;;;;;5118615;28;20864;-47
2021/12/05 11:41:10;;;;;;;3.17;0.97;;;18.70;56.60;;;;;;5119000;28;20406;-45
2021/12/05 11:43:37;;;;;;;1.60;0.80;;;18.50;56.60;;;;;;5117188;28;20430;-44
2021/12/05 11:46:12;;;;;;;1.90;1.10;;;18.40;56.40;;;;;;5118399;28;20499;-43
2021/12/05 11:48:58;;;;;;;1.20;0.80;;;18.40;56.20;;;;;;5118895;28;20523;-43
2021/12/05 11:51:44;;;;;;;2.07;1.10;;;18.40;55.60;;;;;;5118257;28;20900;-44
2021/12/05 11:54:16;;;;;;;1.83;1.10;;;18.70;55.50;;;;;;5118416;28;20915;-45
2021/12/05 11:56:42;;;;;;;1.87;1.10;;;19.30;54.80;;;;;;5117855;28;20424;-44
2021/12/05 11:59:22;;;;;;;1.87;1.50;;;20.50;52.90;;;;;;5116283;28;20429;-44
2021/12/05 12:01:59;;;;;;;4.00;1.30;;;21.50;50.80;;;;;;5116992;28;20210;-48
2021/12/05 12:05:02;;;;;;;4.03;1.40;;;22.20;49.30;;;;;;5117514;28;20447;-45
2021/12/05 12:07:31;;;;;;;2.80;1.13;;;22.20;48.60;;;;;;5117026;28;20480;-44
2021/12/05 12:10:09;;;;;;;2.97;1.67;;;21.90;48.00;;;;;;5116922;28;20414;-45
2021/12/05 12:12:36;;;;;;;2.50;1.37;;;21.60;48.40;;;;;;5116009;28;20436;-45
2021/12/05 12:15:04;;;;;;;1.43;1.23;;;21.40;48.60;;;;;;5116228;28;20442;-44
2021/12/05 12:17:30;;;;;;;1.50;1.07;;;21.10;48.90;;;;;;5098553;28;20452;-46
2021/12/05 12:19:57;;;;;;;1.97;1.40;;;21.20;49.20;;;;;;5115799;28;20428;-41
2021/12/05 12:22:26;;;;;;;1.70;1.10;;;21.80;47.60;;;;;;5115753;28;20430;-41
2021/12/05 12:25:04;;;;;;;2.30;1.13;;;22.40;46.80;;;;;;5116010;28;20424;-41
2021/12/05 12:27:30;;;;;;;1.67;1.00;;;22.70;45.00;;;;;;5098533;28;20469;-44
2021/12/05 12:29:58;;;;;;;1.70;1.10;;;22.40;45.40;;;;;;5116531;28;20835;-46
2021/12/05 12:32:32;;;;;;;12.53;1.87;;;22.10;46.20;;;;;;5115617;28;20789;-44
2021/12/05 12:35:19;;;;;;;4.50;1.40;;;22.10;46.80;;;;;;5116547;28;20532;-43
2021/12/05 12:38:16;;;;;;;2.50;1.27;;;22.10;45.80;;;;;;5116423;28;20430;-43
2021/12/05 12:40:50;;;;;;;1.50;1.00;;;22.20;46.10;;;;;;5098429;28;20431;-44
2021/12/05 12:43:44;;;;;;;2.07;1.30;;;21.90;46.30;;;;;;5117702;28;20479;-43
2021/12/05 12:46:26;;;;;;;2.67;2.10;;;21.60;47.00;;;;;;5116122;28;20943;-45
2021/12/05 12:49:15;;;;;;;2.50;2.30;;;22.20;46.90;;;;;;5117037;28;20468;-43
2021/12/05 12:51:52;;;;;;;3.57;2.57;;;22.70;46.10;;;;;;5116721;28;20421;-45
2021/12/05 12:54:26;;;;;;;10.70;2.27;;;23.30;45.50;;;;;;5116111;28;20500;-44
2021/12/05 12:57:05;;;;;;;7.27;1.63;;;23.40;44.60;;;;;;5114793;28;20477;-44
2021/12/05 12:59:35;;;;;;;2.13;1.70;;;23.00;45.00;;;;;;5115866;28;20426;-45
2021/12/05 13:10:35;;;;;;;1.87;1.50;;;21.00;47.00;;;;;;5110792;28;20471;-42
2021/12/05 13:13:20;;;;;;;2.10;1.40;;;20.50;47.60;;;;;;5111632;28;20410;-45
2021/12/05 13:15:53;;;;;;;1.87;1.40;;;20.10;48.00;;;;;;5102699;28;20433;-44
2021/12/05 13:18:25;;;;;;;2.20;1.20;;;19.80;48.30;;;;;;5106322;28;20487;-42
2021/12/05 13:20:57;;;;;;;1.87;1.40;;;19.40;48.50;;;;;;5117905;28;20465;-42
2021/12/05 13:23:38;;;;;;;1.87;1.33;;;19.10;49.10;;;;;;5119862;28;20420;-43
2021/12/05 13:26:20;;;;;;;1.33;1.07;;;18.90;49.70;;;;;;5120655;28;20580;-44
2021/12/05 13:28:59;;;;;;;1.83;1.40;;;18.70;50.30;;;;;;5112944;28;20427;-44
2021/12/05 13:31:29;;;;;;;2.67;1.63;;;18.60;50.70;;;;;;5107640;28;20839;-43
2021/12/05 13:34:20;;;;;;;1.70;1.40;;;18.60;51.20;;;;;;5105003;28;20418;-44
2021/12/05 13:36:49;;;;;;;1.40;0.70;;;19.50;51.00;;;;;;5082758;28;20506;-43
2021/12/05 13:39:52;;;;;;;1.70;1.07;;;20.10;49.40;;;;;;5108801;28;20585;-45
2021/12/05 13:42:22;;;;;;;1.40;1.00;;;20.20;48.10;;;;;;5110881;28;20434;-44
2021/12/05 13:45:05;;;;;;;2.03;0.90;;;20.20;48.30;;;;;;5118766;28;20710;-44
2021/12/05 13:47:53;;;;;;;2.07;1.13;;;20.10;48.20;;;;;;5110830;28;20479;-41
2021/12/05 13:50:21;;;;;;;1.47;0.90;;;20.10;48.30;;;;;;5101035;28;20474;-42
2021/12/05 13:52:52;;;;;;;1.57;0.90;;;20.30;48.30;;;;;;5100302;28;20414;-44
2021/12/05 13:55:40;;;;;;;1.27;0.80;;;20.20;48.40;;;;;;5098287;28;20435;-44
2021/12/05 13:58:43;;;;;;;1.53;1.10;;;20.00;48.30;;;;;;5099554;28;20415;-44
2021/12/05 14:01:23;;;;;;;1.47;0.87;;;19.90;48.50;;;;;;5099713;28;20833;-45
2021/12/05 14:03:59;;;;;;;2.37;0.90;;;20.50;48.10;;;;;;5099543;28;20410;-42
2021/12/05 14:06:57;;;;;;;1.40;1.00;;;21.30;46.90;;;;;;5098548;28;20491;-42
2021/12/05 14:09:31;;;;;;;9.67;1.50;;;21.90;45.70;;;;;;5098952;28;20399;-43
2021/12/05 14:12:19;;;;;;;1.90;1.13;;;22.20;45.10;;;;;;5097399;28;20411;-44
2021/12/05 14:14:55;;;;;;;1.40;1.00;;;22.50;44.60;;;;;;5099075;28;20435;-43
2021/12/05 14:17:23;;;;;;;2.70;0.80;;;22.20;44.80;;;;;;5100664;28;20434;-44
2021/12/05 14:19:57;;;;;;;1.93;1.10;;;21.70;45.20;;;;;;5117734;28;20902;-43
2021/12/05 14:22:25;;;;;;;1.90;1.17;;;21.10;45.70;;;;;;5116003;28;20434;-43
2021/12/05 14:24:56;;;;;;;1.50;1.00;;;20.60;46.60;;;;;;5117081;28;20487;-45
2021/12/05 14:27:25;;;;;;;1.60;1.20;;;20.20;47.40;;;;;;5116936;28;20558;-43
2021/12/05 14:29:52;;;;;;;1.90;1.50;;;19.80;47.90;;;;;;5118872;28;20776;-42
2021/12/05 14:32:39;;;;;;;2.10;1.27;;;19.50;48.40;;;;;;5118399;28;20429;-42
2021/12/05 14:35:09;;;;;;;2.60;2.00;;;19.10;48.90;;;;;;5118979;28;20422;-43
2021/12/05 14:37:36;;;;;;;1.77;1.53;;;18.90;49.30;;;;;;5116698;28;20487;-43
2021/12/05 14:40:08;;;;;;;2.17;1.70;;;18.90;49.60;;;;;;5116014;28;20414;-44
2021/12/05 14:42:38;;;;;;;1.83;1.60;;;19.20;49.60;;;;;;5117355;28;20430;-43
2021/12/05 14:45:08;;;;;;;2.20;1.87;;;19.40;49.40;;;;;;5117979;28;20836;-45
2021/12/05 14:47:36;;;;;;;1.80;1.43;;;19.60;49.00;;;;;;5117169;28;20458;-44
2021/12/05 14:50:09;;;;;;;2.23;1.80;;;19.70;48.90;;;;;;5117337;27;20524;-43
2021/12/05 14:52:37;;;;;;;3.30;2.10;;;19.80;48.60;;;;;;5117691;28;20417;-42
2021/12/05 14:55:05;;;;;;;3.00;2.30;;;19.90;48.50;;;;;;5117644;28;20556;-43
2021/12/05 14:57:39;;;;;;;3.13;2.57;;;19.70;48.30;;;;;;5117941;28;20448;-43
2021/12/05 15:00:09;;;;;;;3.70;2.17;;;19.50;48.30;;;;;;5117661;28;20406;-43
2021/12/05 15:02:35;;;;;;;2.30;2.10;;;19.20;48.40;;;;;;5117726;28;20511;-42
2021/12/05 15:05:01;;;;;;;2.87;2.20;;;18.90;48.60;;;;;;5117544;28;20911;-42
2021/12/05 15:07:27;;;;;;;3.03;2.73;;;18.60;48.90;;;;;;5118153;28;20567;-42
2021/12/05 15:09:56;;;;;;;2.77;1.70;;;18.20;48.80;;;;;;5117871;28;20406;-44
2021/12/05 15:12:31;;;;;;;2.83;2.30;;;17.90;49.20;;;;;;5116937;28;20180;-43
2021/12/05 15:15:04;;;;;;;2.20;1.80;;;17.50;49.60;;;;;;5118153;28;20460;-43
2021/12/05 15:17:33;;;;;;;2.53;2.10;;;17.20;50.00;;;;;;5096079;28;20944;-44
2021/12/05 15:20:10;;;;;;;4.00;2.40;;;17.00;50.50;;;;;;5097458;28;20421;-42
2021/12/05 15:22:36;;;;;;;3.07;1.70;;;16.70;50.80;;;;;;5097667;28;20516;-43
2021/12/05 15:25:06;;;;;;;3.70;1.93;;;16.60;51.40;;;;;;5097481;28;20420;-43
2021/12/05 15:27:33;;;;;;;3.73;1.83;;;16.30;51.60;;;;;;5096527;28;20480;-42
2021/12/05 15:30:21;;;;;;;2.47;1.50;;;16.20;52.00;;;;;;5097318;28;20492;-43
2021/12/05 15:32:52;;;;;;;3.07;2.40;;;16.00;52.60;;;;;;5077952;28;20529;-43
2021/12/05 15:35:19;;;;;;;2.60;2.17;;;15.90;52.80;;;;;;5095156;28;20421;-42
2021/12/05 15:37:57;;;;;;;4.60;2.87;;;15.80;53.10;;;;;;5096254;28;20419;-44
2021/12/05 15:40:26;;;;;;;3.10;2.13;;;15.70;53.40;;;;;;5092116;28;20486;-43
2021/12/05 15:43:03;;;;;;;4.23;2.50;;;15.60;53.60;;;;;;5071291;28;20429;-42
2021/12/05 15:45:29;;;;;;;4.73;2.70;;;15.50;53.80;;;;;;5096065;28;20435;-44
2021/12/05 15:47:55;;;;;;;4.33;2.70;;;15.40;54.00;;;;;;5104218;28;20551;-43
2021/12/05 15:50:28;;;;;;;3.07;2.23;;;15.40;54.30;;;;;;5117035;28;20508;-41
2021/12/05 15:52:54;;;;;;;5.00;2.90;;;15.40;54.50;;;;;;5117252;28;20171;-45
2021/12/05 15:55:39;;;;;;;3.70;2.37;;;15.40;55.00;;;;;;5117755;28;20437;-45
2021/12/05 15:58:30;;;;;;;2.30;2.10;;;15.30;54.30;;;;;;5116628;28;20196;-44
2021/12/05 16:01:13;;;;;;;3.50;2.73;;;15.00;51.40;;;;;;5116051;28;20432;-44
2021/12/05 16:03:47;;;;;;;3.40;2.60;;;14.40;50.00;;;;;;5116103;28;20432;-44
2021/12/05 16:06:16;;;;;;;2.67;2.47;;;13.90;49.70;;;;;;5117756;28;20482;-43
2021/12/05 16:09:18;;;;;;;2.97;2.30;;;13.50;49.80;;;;;;5117751;28;20861;-40
2021/12/05 16:12:37;;;;;;;3.83;2.53;;;13.10;50.00;;;;;;5112021;28;20460;-38
2021/12/05 16:15:03;;;;;;;4.83;2.40;;;12.60;50.20;;;;;;5102602;28;20448;-37
2021/12/05 16:17:30;;;;;;;6.50;3.70;;;12.20;50.20;;;;;;5104717;28;20431;-37
2021/12/05 16:20:20;;;;;;;4.77;2.70;;;11.90;50.40;;;;;;5106841;28;20544;-37
2021/12/05 16:22:58;;;;;;;3.90;2.87;;;11.60;50.70;;;;;;5086612;28;20439;-38
2021/12/05 16:25:24;;;;;;;4.37;2.87;;;11.40;51.00;;;;;;5096117;28;20435;-38
2021/12/05 16:27:53;;;;;;;3.70;3.10;;;11.10;51.20;;;;;;5094792;28;20513;-38
2021/12/05 16:30:25;;;;;;;3.83;3.00;;;10.90;51.50;;;;;;5096833;28;20436;-37
2021/12/05 16:32:52;;;;;;;4.70;3.90;;;10.80;51.80;;;;;;5097910;28;20474;-35
2021/12/05 16:35:37;;;;;;;4.77;4.20;;;10.60;52.00;;;;;;5097285;28;20428;-45
2021/12/05 16:38:24;;;;;;;7.10;6.27;;;10.40;52.30;;;;;;5096693;28;20515;-46
2021/12/05 16:41:01;;;;;;;9.83;8.57;;;10.20;52.50;;;;;;5096998;28;20827;-47
2021/12/05 16:43:28;;;;;;;13.67;12.27;;;10.00;52.60;;;;;;5096697;28;20521;-46
2021/12/05 16:46:22;;;;;;;15.77;14.10;;;9.90;53.70;;;;;;5097342;28;21011;-47
2021/12/05 16:48:49;;;;;;;15.00;13.23;;;9.70;53.90;;;;;;5107809;28;20451;-46
2021/12/05 16:51:31;;;;;;;14.93;13.03;;;9.60;54.10;;;;;;5100271;28;20741;-46
2021/12/05 16:54:18;;;;;;;13.53;12.00;;;9.40;54.30;;;;;;5099810;28;20899;-46
2021/12/05 16:56:58;;;;;;;13.03;11.73;;;9.30;54.50;;;;;;5100514;28;20422;-46
2021/12/05 16:59:43;;;;;;;11.07;9.97;;;9.20;54.80;;;;;;5098954;28;20433;-46
2021/12/05 17:02:12;;;;;;;10.83;9.73;;;9.00;54.90;;;;;;5100665;28;20769;-46
2021/12/05 17:04:57;;;;;;;10.47;9.43;;;8.90;55.20;;;;;;5099921;28;20442;-46
2021/12/05 17:07:49;;;;;;;9.10;7.70;;;8.80;55.60;;;;;;5098400;28;20982;-46
2021/12/05 17:10:21;;;;;;;9.03;8.23;;;8.70;55.60;;;;;;5100714;28;20912;-46
2021/12/05 17:13:26;;;;;;;8.67;7.77;;;8.60;55.80;;;;;;5100114;28;20425;-46
2021/12/05 17:15:59;;;;;;;8.20;7.40;;;8.50;56.00;;;;;;5018027;28;20435;-46
2021/12/05 17:18:35;;;;;;;7.30;6.03;;;8.40;56.20;;;;;;5099896;28;20831;-46
2021/12/05 17:21:41;;;;;;;8.57;6.30;;;8.30;56.40;;;;;;5121137;28;20721;-46
2021/12/05 17:24:17;;;;;;;7.90;5.73;;;8.30;56.70;;;;;;5117193;28;20433;-46
2021/12/05 17:26:46;;;;;;;5.57;5.07;;;8.10;56.90;;;;;;5120637;28;20476;-46
2021/12/05 17:29:19;;;;;;;8.00;5.60;;;8.10;57.20;;;;;;5119552;28;20436;-46
2021/12/05 17:31:55;;;;;;;6.20;5.57;;;8.00;57.40;;;;;;5120023;28;20417;-45
2021/12/05 17:34:27;;;;;;;6.30;5.10;;;7.90;57.60;;;;;;5118229;28;20434;-46
2021/12/05 17:37:05;;;;;;;6.47;5.63;;;7.90;57.90;;;;;;5119887;27;20424;-46
2021/12/05 17:39:34;;;;;;;6.37;4.80;;;7.80;58.20;;;;;;5118890;28;20432;-46
2021/12/05 17:42:11;;;;;;;5.93;4.93;;;7.80;58.50;;;;;;5101984;28;20422;-47
2021/12/05 17:44:39;;;;;;;6.67;5.17;;;7.70;58.80;;;;;;5118196;28;20486;-46
2021/12/05 17:47:16;;;;;;;5.50;4.90;;;7.70;59.10;;;;;;5119463;28;20768;-47
2021/12/05 17:49:43;;;;;;;8.43;6.63;;;7.60;59.30;;;;;;5117025;28;20425;-43
2021/12/05 17:52:12;;;;;;;8.23;7.43;;;7.60;59.60;;;;;;5116992;28;20845;-45
2021/12/05 17:54:51;;;;;;;10.40;9.17;;;7.60;59.90;;;;;;5117224;28;21174;-46
2021/12/05 17:57:21;;;;;;;9.33;8.30;;;7.60;60.30;;;;;;5117608;28;20434;-46
2021/12/05 18:00:00;;;;;;;8.37;7.57;;;7.50;60.80;;;;;;5117353;28;20441;-46
2021/12/05 18:05:05;;;;;;;8.73;7.63;;;7.50;61.70;;;;;;5117787;28;20457;-46
2021/12/05 18:07:31;;;;;;;8.03;6.87;;;7.40;62.00;;;;;;5117079;28;20586;-45
2021/12/05 18:09:58;;;;;;;8.07;6.80;;;7.40;62.50;;;;;;5118220;28;20422;-46
2021/12/05 18:12:33;;;;;;;5.83;5.23;;;7.30;62.80;;;;;;5117735;28;20176;-46
2021/12/05 18:15:02;;;;;;;7.00;5.83;;;7.30;63.30;;;;;;5118510;28;20448;-46
2021/12/05 18:17:28;;;;;;;5.80;5.03;;;7.20;63.70;;;;;;5118260;27;20423;-45
2021/12/05 18:19:54;;;;;;;9.80;6.33;;;7.20;64.20;;;;;;5119149;28;20413;-46
2021/12/05 18:22:20;;;;;;;5.17;4.37;;;7.10;64.40;;;;;;5119210;28;20183;-46
2021/12/05 18:24:46;;;;;;;7.60;6.07;;;7.10;64.90;;;;;;5093530;28;20188;-46
2021/12/05 18:27:14;;;;;;;5.77;5.17;;;7.10;65.30;;;;;;5099549;28;20200;-46
2021/12/05 18:29:40;;;;;;;6.67;6.00;;;7.00;65.70;;;;;;5097839;28;20426;-46